Nearby METAR Reports

 

KNTU - NAS Oceana, Virginia Beach, Virginia, USA
Distance from station: N 3.2mi, 5.1km
Updated: Mon, 23-Nov-2020 9:56am EST
Mostly cloudy
Mostly cloudy
 Wind from NNW
Wind: NNW 18 mph , 30 km/h, Gust: 25 mph , 41 km/h
Temperature: 63°F , 17°C
Dew Point: 54°F , 12°C
Humidity: 73%
Barometer: 30.02 inHg , 1016.6 hPa
Clouds: Mostly cloudy
Visibility: 10 miles , 16 km
Cloud details: Mostly cloudy 2500 ft
2020/11/23 14:56 KNTU 231456Z 33016G22KT 10SM BKN025 17/12 A3002 RMK AO2 SLP167 60005 T01720122 51023
KNFE - Fentress NALF, Virginia Beach Virginia, USA
Distance from station: SW 7.6mi, 12.2km
Updated: Mon, 23-Nov-2020 10:56am EST
Overcast
Overcast
 Wind from N
Wind: N 17 mph , 28 km/h, Gust: 25 mph , 41 km/h
Temperature: 59°F , 15°C
Dew Point: 50°F , 10°C
Humidity: 72%
Barometer: 30.05 inHg , 1017.6 hPa
Clouds: Overcast
Visibility: 10 miles , 16 km
Cloud details: Mostly cloudy 2300 ft
Overcast 2900 ft
2020/11/23 15:56 KNFE 231556Z AUTO 35015G22KT 10SM BKN023 OVC029 15/10 A3005 RMK AO2 SLP177 T01500100
 
KORF - Norfolk International, Norfolk, Virginia, USA
Distance from station: NW 12.2mi, 19.6km
Updated: Mon, 23-Nov-2020 10:51am EST
Mostly cloudy
Mostly cloudy
 Wind from N
Wind: N 17 mph , 28 km/h, Gust: 32 mph , 52 km/h
Temperature: 57°F , 14°C
Dew Point: 46°F , 8°C
Humidity: 67%
Barometer: 30.06 inHg , 1017.9 hPa
Clouds: Mostly cloudy
Visibility: 10 miles , 16 km
Cloud details: Few Clouds 1900 ft
Partly cloudy 3000 ft
Mostly cloudy 3600 ft
2020/11/23 15:51 KORF 231551Z 35015G28KT 10SM FEW019 SCT030 BKN036 14/08 A3006 RMK AO2 PK WND 36028/1547 SLP177 T01390078
KCPK - Cheasapeak Municipal, Cheasapeak, Virginia, USA
Distance from station: SW 17.2mi, 27.7km
Updated: Mon, 23-Nov-2020 10:35am EST
Overcast
Overcast
 Wind from NW
Wind: NW 15 mph , 24 km/h, Gust: 20 mph , 31 km/h
Temperature: 63°F , 17°C
Dew Point: 50°F , 10°C
Humidity: 64%
Barometer: 30.05 inHg , 1017.6 hPa
Clouds: Overcast
Visibility: 10 miles , 16 km
Cloud details: Mostly cloudy 3100 ft
Overcast 3700 ft
2020/11/23 15:35 KCPK 231535Z AUTO 31013G17KT 10SM BKN031 OVC037 17/10 A3005 RMK AO2 LTG DSNT E AND SE T01670098
 
KNGU - NAS Norfolk, Norfolk, Virginia, USA
Distance from station: NW 17.7mi, 28.5km
Updated: Mon, 23-Nov-2020 10:19am EST
Mostly cloudy
Mostly cloudy
 Wind from N
Wind: N 17 mph , 28 km/h, Gust: 35 mph , 56 km/h
Temperature: 59°F , 15°C
Dew Point: 50°F , 10°C
Humidity: 72%
Barometer: 30.06 inHg , 1017.9 hPa
Clouds: Mostly cloudy
Visibility: 10 miles , 16 km
Cloud details: Mostly cloudy 2300 ft
2020/11/23 15:19 KNGU 231519Z 35015G30KT 10SM BKN023 15/10 A3006 RMK AO2 PK WND 34030/1515 T01500100 $